Time;durP1;ratioP1;P1;durP2;ratioP2;P2;SDS_P1;SDS_P2;PMS_P1;PMS_P2;Temp;Humidity;BMP_temperature;BMP_pressure;BME280_temperature;BME280_humidity;BME280_pressure;Samples;Min_cycle;Max_cycle;Signal;HPM_P1;HPM_P2
2022/01/26 00:06:23;;;;;;;2.67;2.00;;;;;;;;;;5005680;28;19963;-74
2022/01/26 00:08:49;;;;;;;3.65;2.08;;;;;;;;;;5007398;28;20033;-73
2022/01/26 00:11:15;;;;;;;3.00;2.10;;;;;;;;;;5001774;28;20057;-72
2022/01/26 00:13:41;;;;;;;4.70;2.05;;;;;;;;;;5009241;28;20200;-73
2022/01/26 00:16:14;;;;;;;6.88;2.15;;;;;;;;;;5008943;28;20038;-72
2022/01/26 00:18:40;;;;;;;4.32;2.60;;;;;;;;;;5006975;28;20030;-71
2022/01/26 00:21:16;;;;;;;4.53;2.10;;;;;;;;;;5008838;28;20033;-72
2022/01/26 00:27:24;;;;;;;5.07;2.40;;;;;;;;;;5002342;28;20128;-73
2022/01/26 00:29:16;;;;;;;4.40;2.17;;;;;;;;;;5002453;28;20490;-73
2022/01/26 00:40:42;;;;;;;3.88;1.92;;;;;;;;;;5012865;28;20038;-73
2022/01/26 00:43:21;;;;;;;3.05;2.00;;;;;;;;;;5009986;28;20077;-74
2022/01/26 00:45:54;;;;;;;3.10;2.10;;;;;;;;;;5003638;28;20110;-73
2022/01/26 00:48:21;;;;;;;4.88;2.10;;;;;;;;;;5009467;28;20041;-72
2022/01/26 00:50:51;;;;;;;5.20;2.63;;;;;;;;;;5007676;28;20029;-73
2022/01/26 00:53:18;;;;;;;4.90;2.15;;;;;;;;;;5009638;28;20037;-73
2022/01/26 00:55:44;;;;;;;4.28;2.50;;;;;;;;;;5008901;28;20034;-73
2022/01/26 00:58:10;;;;;;;3.58;2.30;;;;;;;;;;5009346;28;20057;-73
2022/01/26 01:00:36;;;;;;;6.15;2.42;;;;;;;;;;5008332;28;20069;-73
2022/01/26 01:03:02;;;;;;;2.63;1.83;;;;;;;;;;5008259;28;20034;-73
2022/01/26 01:05:36;;;;;;;3.63;2.10;;;;;;;;;;5008816;28;20600;-73
2022/01/26 01:08:08;;;;;;;6.03;2.65;;;;;;;;;;5008769;28;20057;-74
2022/01/26 01:10:34;;;;;;;3.25;2.20;;;;;;;;;;5008860;28;20026;-74
2022/01/26 01:13:01;;;;;;;5.55;2.28;;;;;;;;;;5009176;28;20026;-73
2022/01/26 01:15:28;;;;;;;4.13;2.05;;;;;;;;;;5007415;28;20115;-74
2022/01/26 01:18:06;;;;;;;4.00;2.42;;;;;;;;;;5008655;28;20466;-73
2022/01/26 01:20:54;;;;;;;3.53;1.92;;;;;;;;;;5008853;28;20037;-73
2022/01/26 01:24:15;;;;;;;3.22;2.13;;;;;;;;;;5008507;28;20083;-72
2022/01/26 01:29:09;;;;;;;4.03;2.30;;;;;;;;;;5008630;28;20022;-80
2022/01/26 01:34:08;;;;;;;5.65;2.47;;;;;;;;;;5008836;28;20040;-73
2022/01/26 01:36:37;;;;;;;3.72;2.08;;;;;;;;;;5007893;28;20038;-74
2022/01/26 01:39:04;;;;;;;6.30;2.08;;;;;;;;;;4999021;28;20477;-72
2022/01/26 01:41:30;;;;;;;3.47;1.83;;;;;;;;;;5008709;28;20117;-73
2022/01/26 01:43:56;;;;;;;4.40;2.50;;;;;;;;;;5008304;28;20079;-73
2022/01/26 01:46:22;;;;;;;2.50;1.75;;;;;;;;;;5008641;28;20030;-73
2022/01/26 01:48:49;;;;;;;3.35;2.08;;;;;;;;;;5005922;28;20084;-73
2022/01/26 01:51:17;;;;;;;3.13;2.10;;;;;;;;;;5008162;28;20100;-74
2022/01/26 01:53:44;;;;;;;4.43;2.25;;;;;;;;;;5008319;28;20055;-82
2022/01/26 01:56:12;;;;;;;4.10;2.20;;;;;;;;;;5008634;28;20045;-73
2022/01/26 01:58:39;;;;;;;7.18;2.33;;;;;;;;;;5006779;28;20028;-73
2022/01/26 02:01:06;;;;;;;5.60;2.33;;;;;;;;;;5008150;28;20034;-73
2022/01/26 02:03:32;;;;;;;2.95;2.28;;;;;;;;;;5008275;28;20026;-73
2022/01/26 02:05:58;;;;;;;7.07;2.45;;;;;;;;;;5008151;28;20033;-73
2022/01/26 02:08:24;;;;;;;4.82;2.45;;;;;;;;;;5007990;28;20071;-74
2022/01/26 02:10:51;;;;;;;2.80;2.03;;;;;;;;;;5006891;28;20026;-73
2022/01/26 02:13:28;;;;;;;5.95;2.33;;;;;;;;;;5007592;28;20025;-73
2022/01/26 02:16:12;;;;;;;2.30;1.73;;;;;;;;;;5007751;28;20129;-73
2022/01/26 02:51:31;;;;;;;3.70;2.17;;;;;;;;;;5004604;28;20456;-78
2022/01/26 02:56:31;;;;;;;3.25;2.10;;;;;;;;;;5007478;28;20041;-73
2022/01/26 03:01:56;;;;;;;2.97;1.88;;;;;;;;;;5006844;28;20087;-72
2022/01/26 03:09:23;;;;;;;3.17;1.88;;;;;;;;;;5007126;28;20026;-73
2022/01/26 03:11:49;;;;;;;3.85;2.63;;;;;;;;;;5005921;28;20101;-73
2022/01/26 03:14:28;;;;;;;3.42;1.92;;;;;;;;;;4999374;28;20430;-73
2022/01/26 03:17:05;;;;;;;6.53;2.10;;;;;;;;;;5002241;28;20776;-73
2022/01/26 03:19:39;;;;;;;2.65;2.00;;;;;;;;;;4994465;28;20022;-73
2022/01/26 03:30:07;;;;;;;8.40;2.22;;;;;;;;;;5002083;28;20038;-73
2022/01/26 03:35:42;;;;;;;3.17;2.10;;;;;;;;;;5002039;28;20042;-73
2022/01/26 03:38:03;;;;;;;4.90;2.17;;;;;;;;;;4996508;28;20034;-73
2022/01/26 03:40:33;;;;;;;4.38;2.20;;;;;;;;;;5000722;28;20038;-73
2022/01/26 03:42:59;;;;;;;3.00;2.55;;;;;;;;;;5001628;28;20033;-73
2022/01/26 03:45:26;;;;;;;3.60;2.20;;;;;;;;;;5000612;28;20496;-74
2022/01/26 03:47:53;;;;;;;3.38;2.05;;;;;;;;;;5002074;28;20109;-74
2022/01/26 03:50:19;;;;;;;4.85;2.00;;;;;;;;;;5001477;28;20030;-75
2022/01/26 03:52:45;;;;;;;3.53;2.17;;;;;;;;;;5001865;28;20033;-73
2022/01/26 03:55:12;;;;;;;5.30;2.25;;;;;;;;;;5000621;28;20425;-74
2022/01/26 03:57:38;;;;;;;4.20;2.33;;;;;;;;;;5002131;28;20026;-74
2022/01/26 04:00:07;;;;;;;3.00;2.08;;;;;;;;;;5000653;28;20033;-74
2022/01/26 04:02:33;;;;;;;3.33;1.95;;;;;;;;;;4994418;28;20062;-73
2022/01/26 04:05:02;;;;;;;3.90;2.10;;;;;;;;;;4999208;28;20034;-73
2022/01/26 04:07:28;;;;;;;4.47;2.15;;;;;;;;;;4998869;28;20040;-75
2022/01/26 04:10:02;;;;;;;4.30;2.28;;;;;;;;;;4999240;28;20022;-73
2022/01/26 04:12:29;;;;;;;4.72;2.20;;;;;;;;;;4997496;28;20026;-73
2022/01/26 04:15:02;;;;;;;3.40;2.03;;;;;;;;;;5000514;28;20096;-73
2022/01/26 04:17:28;;;;;;;8.20;3.20;;;;;;;;;;5002808;28;20045;-74
2022/01/26 04:19:57;;;;;;;3.45;2.30;;;;;;;;;;5003081;28;20079;-74
2022/01/26 04:22:32;;;;;;;3.03;1.92;;;;;;;;;;5002310;28;20145;-80
2022/01/26 04:24:58;;;;;;;3.05;1.85;;;;;;;;;;4995852;28;20405;-74
2022/01/26 04:27:39;;;;;;;3.55;2.25;;;;;;;;;;4999626;28;20061;-81
2022/01/26 04:30:06;;;;;;;3.47;1.80;;;;;;;;;;4996533;28;20026;-74
2022/01/26 04:32:32;;;;;;;7.82;1.90;;;;;;;;;;5002075;28;20590;-74
2022/01/26 04:34:58;;;;;;;6.30;2.10;;;;;;;;;;5002476;28;20026;-74
2022/01/26 04:40:02;;;;;;;5.15;2.22;;;;;;;;;;5002619;28;20034;-74
2022/01/26 04:45:08;;;;;;;4.50;2.03;;;;;;;;;;4996010;28;20441;-74
2022/01/26 04:47:34;;;;;;;2.72;1.80;;;;;;;;;;5001737;28;20058;-75
2022/01/26 04:50:00;;;;;;;4.20;2.22;;;;;;;;;;5000723;28;20034;-74
2022/01/26 04:52:27;;;;;;;4.32;2.40;;;;;;;;;;5002271;28;20026;-76
2022/01/26 04:54:53;;;;;;;3.30;1.95;;;;;;;;;;5002333;28;20483;-74
2022/01/26 04:57:19;;;;;;;3.13;1.90;;;;;;;;;;5001511;28;20758;-74
2022/01/26 04:59:45;;;;;;;2.55;1.88;;;;;;;;;;5000673;28;20033;-75
2022/01/26 05:02:11;;;;;;;3.47;2.10;;;;;;;;;;5002154;28;20033;-73
2022/01/26 05:04:37;;;;;;;3.33;1.80;;;;;;;;;;5000584;28;20034;-79
2022/01/26 05:07:04;;;;;;;3.80;2.20;;;;;;;;;;5000363;28;20041;-74
2022/01/26 05:09:30;;;;;;;2.78;1.80;;;;;;;;;;5000629;28;20040;-74
2022/01/26 05:11:56;;;;;;;3.28;1.88;;;;;;;;;;5001548;28;20088;-74
2022/01/26 05:14:23;;;;;;;5.03;2.20;;;;;;;;;;5001326;28;20394;-73
2022/01/26 05:16:49;;;;;;;4.13;2.00;;;;;;;;;;5001474;28;20038;-73
2022/01/26 05:19:15;;;;;;;3.10;2.13;;;;;;;;;;5000574;28;20029;-73
2022/01/26 05:21:42;;;;;;;5.13;2.28;;;;;;;;;;5001526;28;20152;-79
2022/01/26 05:24:10;;;;;;;5.20;2.00;;;;;;;;;;4992847;28;20521;-73
2022/01/26 05:26:38;;;;;;;4.05;2.10;;;;;;;;;;5000536;28;20041;-74
2022/01/26 05:29:04;;;;;;;3.42;1.65;;;;;;;;;;4999483;28;20022;-82
2022/01/26 05:31:30;;;;;;;5.07;1.88;;;;;;;;;;5001313;28;20076;-74
2022/01/26 05:33:56;;;;;;;4.82;1.80;;;;;;;;;;5001637;28;20100;-74
2022/01/26 05:36:23;;;;;;;2.75;1.67;;;;;;;;;;5000181;28;20305;-73
2022/01/26 05:38:49;;;;;;;4.05;2.08;;;;;;;;;;5001270;28;20032;-75
2022/01/26 05:41:15;;;;;;;4.63;1.88;;;;;;;;;;5001423;28;20022;-74
2022/01/26 05:43:42;;;;;;;3.30;2.00;;;;;;;;;;5001277;28;20490;-75
2022/01/26 05:46:13;;;;;;;7.57;1.92;;;;;;;;;;4999893;28;20759;-74
2022/01/26 05:48:44;;;;;;;2.78;1.92;;;;;;;;;;5001207;28;20093;-74
2022/01/26 05:51:11;;;;;;;3.22;1.85;;;;;;;;;;4999575;28;20030;-74
2022/01/26 05:53:38;;;;;;;3.78;2.33;;;;;;;;;;5001155;28;20113;-74
2022/01/26 05:56:04;;;;;;;3.38;2.08;;;;;;;;;;5000702;28;20057;-76
2022/01/26 05:58:31;;;;;;;2.78;1.80;;;;;;;;;;5001650;28;20425;-74
2022/01/26 06:00:59;;;;;;;4.05;1.95;;;;;;;;;;5000413;28;20025;-74
2022/01/26 06:03:25;;;;;;;2.58;1.80;;;;;;;;;;5000122;28;20482;-74
2022/01/26 06:05:54;;;;;;;5.00;2.13;;;;;;;;;;5000890;28;20033;-74
2022/01/26 06:08:20;;;;;;;3.53;2.03;;;;;;;;;;4993468;28;20377;-73
2022/01/26 06:10:47;;;;;;;2.63;2.08;;;;;;;;;;5001013;28;20030;-74
2022/01/26 06:13:13;;;;;;;2.75;1.80;;;;;;;;;;5000310;28;20121;-73
2022/01/26 06:15:39;;;;;;;4.82;3.50;;;;;;;;;;4999146;28;20113;-74
2022/01/26 06:18:05;;;;;;;3.10;1.73;;;;;;;;;;5000832;28;20026;-74
2022/01/26 06:20:32;;;;;;;2.65;1.80;;;;;;;;;;5000687;28;20065;-74
2022/01/26 06:22:58;;;;;;;4.63;1.90;;;;;;;;;;5000568;28;20033;-76
2022/01/26 06:25:24;;;;;;;4.45;2.10;;;;;;;;;;4998446;28;20025;-74
2022/01/26 06:27:54;;;;;;;3.17;2.20;;;;;;;;;;4998540;28;20034;-75
2022/01/26 06:30:21;;;;;;;4.13;2.08;;;;;;;;;;5000325;28;20034;-73
2022/01/26 06:32:47;;;;;;;2.75;1.67;;;;;;;;;;4999179;28;20421;-74
2022/01/26 06:35:14;;;;;;;2.35;1.65;;;;;;;;;;5000220;28;20026;-73
2022/01/26 06:37:40;;;;;;;3.75;1.98;;;;;;;;;;4998258;28;20748;-74
2022/01/26 06:40:06;;;;;;;4.00;2.10;;;;;;;;;;5002811;28;20087;-76
2022/01/26 06:42:47;;;;;;;4.65;2.10;;;;;;;;;;4994628;28;20030;-74
2022/01/26 06:45:17;;;;;;;5.25;2.20;;;;;;;;;;5001680;28;20026;-71
2022/01/26 06:50:18;;;;;;;5.15;1.95;;;;;;;;;;5000326;28;20038;-73
2022/01/26 06:52:46;;;;;;;4.43;2.10;;;;;;;;;;5002247;28;20097;-72
2022/01/26 06:55:12;;;;;;;3.30;1.90;;;;;;;;;;5001840;28;20485;-73
2022/01/26 06:57:40;;;;;;;3.95;2.55;;;;;;;;;;4992994;28;20068;-73
2022/01/26 07:00:07;;;;;;;3.72;2.35;;;;;;;;;;5003586;28;20061;-72
2022/01/26 07:02:33;;;;;;;5.28;2.65;;;;;;;;;;5002311;28;20060;-71
2022/01/26 07:04:59;;;;;;;6.65;3.13;;;;;;;;;;5005178;28;20080;-75
2022/01/26 07:07:25;;;;;;;6.93;2.90;;;;;;;;;;5004137;28;20032;-70
2022/01/26 07:09:51;;;;;;;4.70;2.63;;;;;;;;;;5003793;28;20034;-69
2022/01/26 07:12:17;;;;;;;5.45;3.45;;;;;;;;;;5004079;28;20025;-71
2022/01/26 07:23:16;;;;;;;7.47;3.75;;;;;;;;;;4977644;28;20892;-71
2022/01/26 07:25:42;;;;;;;5.20;3.30;;;;;;;;;;4997431;28;20056;-70
2022/01/26 07:28:09;;;;;;;8.38;3.33;;;;;;;;;;5002680;28;20034;-72
2022/01/26 07:30:35;;;;;;;5.80;3.47;;;;;;;;;;5003240;28;20045;-71
2022/01/26 07:33:03;;;;;;;8.40;5.03;;;;;;;;;;5003553;28;20557;-70
2022/01/26 07:35:29;;;;;;;13.32;5.10;;;;;;;;;;5003564;28;20416;-71
2022/01/26 07:37:58;;;;;;;9.48;4.40;;;;;;;;;;5002240;28;20022;-70
2022/01/26 07:40:24;;;;;;;7.93;4.38;;;;;;;;;;5003279;28;20029;-71
2022/01/26 07:42:51;;;;;;;6.47;4.43;;;;;;;;;;5000986;28;20080;-71
2022/01/26 07:45:17;;;;;;;6.47;3.95;;;;;;;;;;5003645;28;20025;-71
2022/01/26 07:47:44;;;;;;;9.70;4.50;;;;;;;;;;5002168;28;20034;-70
2022/01/26 07:50:13;;;;;;;9.63;3.90;;;;;;;;;;5007184;28;20030;-71
2022/01/26 07:52:41;;;;;;;8.75;4.80;;;;;;;;;;5006873;28;20525;-71
2022/01/26 07:55:08;;;;;;;8.13;3.50;;;;;;;;;;5007001;28;20030;-71
2022/01/26 07:57:34;;;;;;;8.73;3.67;;;;;;;;;;5005408;28;20087;-71
2022/01/26 08:00:01;;;;;;;5.05;3.08;;;;;;;;;;4996189;28;20030;-75
2022/01/26 08:02:27;;;;;;;10.73;5.00;;;;;;;;;;5005862;28;20026;-78
2022/01/26 08:04:53;;;;;;;9.38;4.63;;;;;;;;;;5006366;28;20026;-76
2022/01/26 08:07:19;;;;;;;7.93;5.28;;;;;;;;;;5007324;28;20623;-76
2022/01/26 08:09:46;;;;;;;9.07;4.28;;;;;;;;;;5005021;28;20032;-77
2022/01/26 08:12:12;;;;;;;7.47;4.03;;;;;;;;;;5007072;28;20748;-78
2022/01/26 08:14:38;;;;;;;7.50;4.28;;;;;;;;;;5006736;28;20691;-79
2022/01/26 08:17:06;;;;;;;9.73;4.70;;;;;;;;;;5006530;28;20050;-71
2022/01/26 08:19:32;;;;;;;8.27;4.97;;;;;;;;;;5003813;28;20257;-76
2022/01/26 08:22:01;;;;;;;10.32;5.32;;;;;;;;;;5006970;28;20647;-72
2022/01/26 08:24:28;;;;;;;12.95;7.95;;;;;;;;;;4998937;28;20537;-79
2022/01/26 08:26:56;;;;;;;29.90;16.80;;;;;;;;;;5004806;28;20050;-77
2022/01/26 08:29:28;;;;;;;11.80;7.18;;;;;;;;;;5005162;28;20137;-72
2022/01/26 08:31:54;;;;;;;8.82;3.75;;;;;;;;;;5006702;28;20101;-77
2022/01/26 08:34:20;;;;;;;4.20;2.60;;;;;;;;;;5005670;28;20549;-72
2022/01/26 08:36:46;;;;;;;5.43;3.28;;;;;;;;;;5005261;28;20038;-73
2022/01/26 08:39:12;;;;;;;31.70;16.67;;;;;;;;;;5006760;28;20115;-73
2022/01/26 08:41:39;;;;;;;27.88;16.05;;;;;;;;;;5005893;28;20104;-72
2022/01/26 08:44:05;;;;;;;7.53;3.70;;;;;;;;;;4999959;28;20033;-70
2022/01/26 08:46:32;;;;;;;16.25;8.93;;;;;;;;;;4997779;28;20088;-72
2022/01/26 08:48:58;;;;;;;11.75;7.03;;;;;;;;;;5005726;28;20041;-72
2022/01/26 08:51:24;;;;;;;5.53;3.95;;;;;;;;;;5005577;28;20029;-71
2022/01/26 08:53:50;;;;;;;6.85;5.50;;;;;;;;;;5001808;28;20026;-71
2022/01/26 08:56:16;;;;;;;4.40;2.92;;;;;;;;;;5005434;28;20568;-74
2022/01/26 08:58:43;;;;;;;4.28;2.30;;;;;;;;;;5004110;28;20087;-72
2022/01/26 09:01:09;;;;;;;6.10;3.30;;;;;;;;;;4999337;28;20037;-71
2022/01/26 09:03:39;;;;;;;5.65;3.45;;;;;;;;;;5005698;28;20030;-74
2022/01/26 09:06:06;;;;;;;5.72;4.25;;;;;;;;;;5000820;28;20057;-73
2022/01/26 09:08:32;;;;;;;8.15;5.95;;;;;;;;;;5005198;28;20095;-70
2022/01/26 09:11:01;;;;;;;9.20;4.93;;;;;;;;;;5004276;28;20018;-70
2022/01/26 09:13:32;;;;;;;6.13;2.85;;;;;;;;;;5001391;28;20798;-70
2022/01/26 09:15:59;;;;;;;25.33;10.47;;;;;;;;;;5001840;28;20047;-70
2022/01/26 09:19:06;;;;;;;16.20;7.68;;;;;;;;;;5004829;28;20267;-70
2022/01/26 09:21:18;;;;;;;6.25;2.60;;;;;;;;;;4995108;28;20030;-73
2022/01/26 09:23:44;;;;;;;5.15;2.05;;;;;;;;;;5004979;28;20022;-74
2022/01/26 09:26:11;;;;;;;4.45;1.90;;;;;;;;;;4997673;28;20053;-74
2022/01/26 09:28:37;;;;;;;4.45;2.22;;;;;;;;;;5003931;28;20022;-73
2022/01/26 09:31:04;;;;;;;3.25;1.98;;;;;;;;;;5004697;28;20117;-70
2022/01/26 09:33:30;;;;;;;3.38;1.80;;;;;;;;;;4999997;28;20066;-71
2022/01/26 09:35:56;;;;;;;5.82;1.98;;;;;;;;;;5003551;28;20045;-71
2022/01/26 09:38:22;;;;;;;3.65;2.00;;;;;;;;;;5003573;28;20026;-71
2022/01/26 09:40:49;;;;;;;2.92;2.17;;;;;;;;;;4998010;28;20448;-70
2022/01/26 09:43:17;;;;;;;4.65;1.85;;;;;;;;;;5005136;28;20458;-71
2022/01/26 09:45:44;;;;;;;3.83;1.85;;;;;;;;;;5003194;28;20042;-72
2022/01/26 09:48:12;;;;;;;4.88;1.98;;;;;;;;;;5001590;28;20109;-71
2022/01/26 09:50:38;;;;;;;3.70;1.88;;;;;;;;;;5004250;28;20038;-71
2022/01/26 09:53:04;;;;;;;4.68;2.10;;;;;;;;;;5004736;28;20030;-71
2022/01/26 09:55:31;;;;;;;3.15;1.77;;;;;;;;;;5003449;28;20030;-71
2022/01/26 09:57:58;;;;;;;4.65;1.90;;;;;;;;;;5000600;28;20615;-72
2022/01/26 10:00:25;;;;;;;3.08;2.10;;;;;;;;;;5004808;28;20661;-71
2022/01/26 10:02:58;;;;;;;4.05;1.80;;;;;;;;;;4999327;28;20041;-71
2022/01/26 10:05:24;;;;;;;2.97;1.67;;;;;;;;;;5004164;28;20129;-70
2022/01/26 10:08:12;;;;;;;3.33;1.67;;;;;;;;;;5004309;28;20029;-70
2022/01/26 10:18:46;;;;;;;3.65;1.80;;;;;;;;;;4992763;28;20038;-68
2022/01/26 10:21:12;;;;;;;5.93;2.55;;;;;;;;;;5004828;28;20030;-68
2022/01/26 10:23:40;;;;;;;9.35;2.95;;;;;;;;;;5003494;28;20033;-69
2022/01/26 10:26:07;;;;;;;4.88;2.25;;;;;;;;;;5004464;28;20139;-69
2022/01/26 10:28:54;;;;;;;4.20;2.45;;;;;;;;;;5004185;28;20021;-70
2022/01/26 10:31:24;;;;;;;11.80;6.22;;;;;;;;;;5002803;28;20091;-69
2022/01/26 10:34:00;;;;;;;3.85;2.35;;;;;;;;;;5004315;28;20025;-69
2022/01/26 10:36:34;;;;;;;4.88;2.67;;;;;;;;;;5004352;28;20553;-74
2022/01/26 10:39:01;;;;;;;2.95;1.90;;;;;;;;;;5002927;28;20022;-71
2022/01/26 10:41:28;;;;;;;3.58;2.17;;;;;;;;;;5004388;28;20029;-72
2022/01/26 10:43:56;;;;;;;3.67;1.80;;;;;;;;;;5004673;28;20026;-73
2022/01/26 10:46:31;;;;;;;6.38;2.05;;;;;;;;;;5003615;28;20030;-74
2022/01/26 10:54:34;;;;;;;19.95;6.22;;;;;;;;;;4990458;28;20038;-72
2022/01/26 10:57:01;;;;;;;6.57;2.20;;;;;;;;;;4984491;28;20034;-71
2022/01/26 10:59:27;;;;;;;6.13;2.90;;;;;;;;;;4984970;28;20121;-71
2022/01/26 11:01:59;;;;;;;6.88;3.33;;;;;;;;;;4982016;28;20457;-76
2022/01/26 11:04:25;;;;;;;4.35;2.80;;;;;;;;;;4984963;28;20033;-71
2022/01/26 11:06:52;;;;;;;5.50;2.78;;;;;;;;;;4983910;28;20028;-71
2022/01/26 11:09:21;;;;;;;5.25;2.30;;;;;;;;;;4983463;28;20026;-71
2022/01/26 11:11:47;;;;;;;5.80;2.28;;;;;;;;;;4986033;28;20453;-71
2022/01/26 11:14:13;;;;;;;7.95;2.30;;;;;;;;;;4984778;28;20038;-71
2022/01/26 11:16:47;;;;;;;5.22;2.75;;;;;;;;;;4985476;28;20116;-75
2022/01/26 11:19:15;;;;;;;3.80;1.98;;;;;;;;;;4983870;28;20113;-71
2022/01/26 11:21:42;;;;;;;3.67;2.22;;;;;;;;;;4984249;28;20041;-71
2022/01/26 11:24:11;;;;;;;3.95;1.88;;;;;;;;;;4985646;28;20022;-71
2022/01/26 11:26:39;;;;;;;6.40;1.95;;;;;;;;;;4986469;28;20050;-70
2022/01/26 11:29:25;;;;;;;3.83;2.20;;;;;;;;;;4988318;28;20309;-71
2022/01/26 11:32:05;;;;;;;4.32;2.00;;;;;;;;;;4990040;28;20490;-71
2022/01/26 11:34:32;;;;;;;2.70;1.70;;;;;;;;;;4988349;28;20022;-70
2022/01/26 11:36:59;;;;;;;4.13;1.98;;;;;;;;;;4988714;28;20415;-70
2022/01/26 11:42:19;;;;;;;4.30;1.80;;;;;;;;;;5006749;28;20501;-69
2022/01/26 11:45:06;;;;;;;4.28;1.83;;;;;;;;;;5006503;28;20026;-69
2022/01/26 11:47:33;;;;;;;4.47;1.75;;;;;;;;;;5000890;28;20026;-69
2022/01/26 11:50:09;;;;;;;4.07;1.88;;;;;;;;;;4986119;28;20234;-69
2022/01/26 11:52:38;;;;;;;4.53;1.92;;;;;;;;;;4987713;28;20042;-70
2022/01/26 11:55:27;;;;;;;4.95;1.92;;;;;;;;;;4987394;28;20081;-67
2022/01/26 11:57:55;;;;;;;3.53;1.88;;;;;;;;;;4987274;28;20034;-68
2022/01/26 12:00:35;;;;;;;4.10;2.10;;;;;;;;;;4985821;28;20390;-66
2022/01/26 12:03:01;;;;;;;3.33;1.75;;;;;;;;;;4991763;28;20092;-68
2022/01/26 12:05:28;;;;;;;3.80;2.00;;;;;;;;;;5006770;28;20021;-72
2022/01/26 12:07:55;;;;;;;6.88;2.33;;;;;;;;;;5006708;28;20040;-70
2022/01/26 12:10:26;;;;;;;3.47;2.45;;;;;;;;;;5005305;28;20434;-68
2022/01/26 12:13:05;;;;;;;5.50;2.17;;;;;;;;;;5006531;28;20427;-68
2022/01/26 12:15:39;;;;;;;3.80;1.70;;;;;;;;;;5006368;28;20112;-67
2022/01/26 12:38:15;;;;;;;4.75;2.15;;;;;;;;;;5006753;28;20042;-67
2022/01/26 12:43:33;;;;;;;3.97;3.10;;;;;;;;;;5004870;28;20045;-68
2022/01/26 12:46:00;;;;;;;7.28;2.55;;;;;;;;;;5006380;28;20108;-67
2022/01/26 12:48:26;;;;;;;4.03;2.08;;;;;;;;;;5006080;28;20036;-67
2022/01/26 12:50:53;;;;;;;7.35;2.08;;;;;;;;;;5005222;28;20386;-67
2022/01/26 12:53:23;;;;;;;2.65;1.73;;;;;;;;;;5005389;28;20026;-67
2022/01/26 12:55:55;;;;;;;4.88;2.80;;;;;;;;;;5005578;28;20120;-66
2022/01/26 12:58:24;;;;;;;4.87;3.13;;;;;;;;;;5006239;28;20018;-70
2022/01/26 13:00:51;;;;;;;4.50;2.97;;;;;;;;;;5005294;28;20294;-67
2022/01/26 13:03:19;;;;;;;6.22;3.20;;;;;;;;;;5004322;28;20532;-67
2022/01/26 13:05:46;;;;;;;4.93;2.58;;;;;;;;;;5004646;28;20026;-67
2022/01/26 13:08:12;;;;;;;4.53;2.10;;;;;;;;;;5005940;28;20085;-68
2022/01/26 13:10:39;;;;;;;5.25;2.00;;;;;;;;;;5005741;28;20030;-68
2022/01/26 13:13:09;;;;;;;4.75;2.05;;;;;;;;;;5005655;28;20088;-68
2022/01/26 13:15:45;;;;;;;3.70;2.10;;;;;;;;;;5006161;28;20032;-68
2022/01/26 13:18:26;;;;;;;5.47;2.45;;;;;;;;;;5005768;28;20041;-67
2022/01/26 13:21:12;;;;;;;5.45;2.03;;;;;;;;;;4994974;28;20026;-72
2022/01/26 13:24:01;;;;;;;7.18;2.67;;;;;;;;;;4993943;28;20053;-68
2022/01/26 13:26:36;;;;;;;8.90;2.63;;;;;;;;;;5000546;28;20088;-67
2022/01/26 13:37:44;;;;;;;2.55;2.10;;;;;;;;;;4985394;28;20164;-67
2022/01/26 13:51:04;;;;;;;4.40;2.42;;;;;;;;;;5000225;28;20076;-67
2022/01/26 13:54:25;;;;;;;4.35;2.80;;;;;;;;;;5000857;28;20811;-67
2022/01/26 13:59:13;;;;;;;3.72;1.77;;;;;;;;;;5001872;28;20362;-68
2022/01/26 14:01:43;;;;;;;3.40;1.80;;;;;;;;;;5000553;28;20080;-67
2022/01/26 14:04:10;;;;;;;3.90;1.55;;;;;;;;;;5000145;28;20691;-67
2022/01/26 14:06:36;;;;;;;3.42;2.03;;;;;;;;;;5000289;28;20029;-67
2022/01/26 14:09:03;;;;;;;2.75;1.42;;;;;;;;;;4998906;28;20581;-67
2022/01/26 14:11:29;;;;;;;2.97;1.83;;;;;;;;;;4999391;28;20359;-67
2022/01/26 14:13:57;;;;;;;5.47;2.15;;;;;;;;;;5000118;28;20109;-67
2022/01/26 14:16:25;;;;;;;5.15;2.13;;;;;;;;;;5000248;28;20081;-69
2022/01/26 14:24:10;;;;;;;2.47;1.50;;;;;;;;;;5000312;28;20026;-67
2022/01/26 14:26:36;;;;;;;3.58;1.70;;;;;;;;;;4998559;28;20438;-67
2022/01/26 14:29:07;;;;;;;3.13;1.60;;;;;;;;;;5000507;28;20033;-67
2022/01/26 14:31:38;;;;;;;4.30;1.67;;;;;;;;;;5000055;28;20033;-67
2022/01/26 14:34:35;;;;;;;3.83;1.70;;;;;;;;;;4998444;28;20088;-67
2022/01/26 15:08:43;;;;;;;2.90;1.58;;;;;;;;;;4997598;28;20468;-67
2022/01/26 15:29:55;;;;;;;2.53;1.75;;;;;;;;;;4999959;28;20230;-67
2022/01/26 15:57:54;;;;;;;5.07;1.50;;;;;;;;;;4999127;28;20124;-68
2022/01/26 16:06:15;;;;;;;3.03;1.83;;;;;;;;;;4999271;28;20044;-68
2022/01/26 16:18:20;;;;;;;6.20;1.50;;;;;;;;;;5002593;28;20052;-67
2022/01/26 18:39:37;;;;;;;3.80;2.33;;;;;;;;;;4999591;28;20677;-69
2022/01/26 18:49:38;;;;;;;2.80;1.38;;;;;;;;;;4999630;28;20038;-69
2022/01/26 18:52:05;;;;;;;4.68;1.70;;;;;;;;;;4999528;28;20481;-69
2022/01/26 18:54:32;;;;;;;4.05;2.28;;;;;;;;;;4997693;28;20251;-69
2022/01/26 18:57:00;;;;;;;3.40;1.55;;;;;;;;;;4998134;28;20073;-69
2022/01/26 18:59:27;;;;;;;5.25;2.28;;;;;;;;;;4996193;28;20800;-69
2022/01/26 19:01:55;;;;;;;10.45;1.90;;;;;;;;;;4995491;28;20117;-73
2022/01/26 19:04:31;;;;;;;2.50;1.35;;;;;;;;;;4998082;28;20022;-69
2022/01/26 19:06:57;;;;;;;9.45;2.05;;;;;;;;;;4997655;28;20125;-69
2022/01/26 19:09:27;;;;;;;4.97;1.30;;;;;;;;;;4998567;28;20040;-69
2022/01/26 19:11:54;;;;;;;4.50;1.95;;;;;;;;;;4998788;28;20029;-69
2022/01/26 19:14:24;;;;;;;3.78;1.52;;;;;;;;;;4997305;28;20466;-69
2022/01/26 19:17:01;;;;;;;4.13;1.50;;;;;;;;;;4998999;28;20053;-68
2022/01/26 19:19:39;;;;;;;7.47;3.95;;;;;;;;;;4998994;28;20030;-69
2022/01/26 19:25:02;;;;;;;2.17;1.42;;;;;;;;;;4998850;28;20053;-69
2022/01/26 19:27:40;;;;;;;3.25;1.70;;;;;;;;;;4998313;28;20090;-70
2022/01/26 19:32:56;;;;;;;3.10;1.60;;;;;;;;;;4998835;28;20502;-69
2022/01/26 19:42:17;;;;;;;3.97;1.60;;;;;;;;;;4973395;28;20081;-69
2022/01/26 19:44:11;;;;;;;2.80;1.88;;;;;;;;;;4975571;28;20066;-70
2022/01/26 19:47:01;;;;;;;2.67;1.50;;;;;;;;;;4996626;28;20041;-69
2022/01/26 19:52:10;;;;;;;3.78;1.90;;;;;;;;;;5001854;28;20074;-71
2022/01/26 19:54:40;;;;;;;4.22;2.40;;;;;;;;;;5002090;28;20065;-69
2022/01/26 19:57:06;;;;;;;3.97;2.22;;;;;;;;;;5000669;28;20747;-70
2022/01/26 19:59:32;;;;;;;2.78;1.80;;;;;;;;;;5001394;28;20087;-69
2022/01/26 20:01:59;;;;;;;3.08;1.90;;;;;;;;;;5003365;28;20624;-69
2022/01/26 20:04:28;;;;;;;3.83;1.58;;;;;;;;;;5002584;28;20473;-69
2022/01/26 20:06:54;;;;;;;2.58;1.80;;;;;;;;;;5002834;28;20037;-71
2022/01/26 20:11:58;;;;;;;1.92;1.45;;;;;;;;;;5003053;28;20111;-70
2022/01/26 20:14:32;;;;;;;4.15;2.10;;;;;;;;;;5002830;28;20026;-70
2022/01/26 20:16:59;;;;;;;5.88;1.88;;;;;;;;;;5002588;28;20095;-69
2022/01/26 20:19:25;;;;;;;5.15;2.17;;;;;;;;;;5002148;28;20041;-76
2022/01/26 20:21:51;;;;;;;5.47;2.30;;;;;;;;;;5001239;28;20045;-69
2022/01/26 20:24:17;;;;;;;2.70;1.75;;;;;;;;;;5002625;28;20032;-69
2022/01/26 20:26:44;;;;;;;4.53;1.80;;;;;;;;;;5002547;28;20086;-69
2022/01/26 20:29:11;;;;;;;3.72;1.50;;;;;;;;;;5002452;28;20057;-70
2022/01/26 20:31:37;;;;;;;2.67;1.55;;;;;;;;;;5000964;28;20028;-70
2022/01/26 20:34:03;;;;;;;3.22;1.70;;;;;;;;;;5002704;28;20030;-69
2022/01/26 20:36:29;;;;;;;2.35;1.60;;;;;;;;;;5002612;28;20525;-70
2022/01/26 20:39:01;;;;;;;2.95;1.90;;;;;;;;;;4999949;28;20032;-70
2022/01/26 20:41:28;;;;;;;5.63;2.10;;;;;;;;;;5000120;28;20033;-70
2022/01/26 20:43:54;;;;;;;3.42;1.85;;;;;;;;;;5002086;28;20022;-69
2022/01/26 20:46:20;;;;;;;3.58;2.40;;;;;;;;;;4981833;28;20594;-69
2022/01/26 20:48:48;;;;;;;5.95;1.98;;;;;;;;;;4982530;28;20113;-69
2022/01/26 20:51:14;;;;;;;2.78;1.95;;;;;;;;;;4986422;28;20034;-70
2022/01/26 20:53:41;;;;;;;6.55;1.80;;;;;;;;;;5001867;28;20056;-73
2022/01/26 20:56:08;;;;;;;3.25;1.90;;;;;;;;;;4999895;28;20030;-71
2022/01/26 20:58:34;;;;;;;2.85;1.90;;;;;;;;;;5001924;28;20502;-70
2022/01/26 21:01:00;;;;;;;2.60;1.70;;;;;;;;;;5002263;28;20030;-67
2022/01/26 21:03:26;;;;;;;3.50;2.13;;;;;;;;;;5002977;28;20132;-68
2022/01/26 21:05:53;;;;;;;2.53;1.58;;;;;;;;;;5003165;28;20626;-73
2022/01/26 21:08:22;;;;;;;5.97;2.13;;;;;;;;;;5005294;28;20505;-69
2022/01/26 21:10:51;;;;;;;4.22;2.00;;;;;;;;;;5004192;28;20036;-68
2022/01/26 21:13:17;;;;;;;2.83;1.63;;;;;;;;;;5002635;28;20021;-68
2022/01/26 21:15:44;;;;;;;3.10;1.95;;;;;;;;;;5003853;28;20014;-68
2022/01/26 21:18:11;;;;;;;4.18;2.10;;;;;;;;;;5003921;28;20160;-68
2022/01/26 21:20:40;;;;;;;3.65;1.77;;;;;;;;;;5003827;28;20526;-68
2022/01/26 21:23:07;;;;;;;2.92;1.95;;;;;;;;;;4990465;28;20770;-74
2022/01/26 21:25:33;;;;;;;3.70;1.90;;;;;;;;;;5003470;28;20018;-68
2022/01/26 21:28:00;;;;;;;3.72;1.60;;;;;;;;;;5002138;28;20046;-69
2022/01/26 21:30:28;;;;;;;3.13;1.67;;;;;;;;;;5003191;28;20093;-68
2022/01/26 21:32:54;;;;;;;4.72;2.25;;;;;;;;;;5003637;28;20022;-68
2022/01/26 21:35:21;;;;;;;2.88;1.90;;;;;;;;;;5002650;28;20046;-68
2022/01/26 21:37:47;;;;;;;2.65;1.95;;;;;;;;;;5003429;28;20037;-69
2022/01/26 21:40:14;;;;;;;4.90;2.30;;;;;;;;;;5000824;28;20022;-68
2022/01/26 21:42:40;;;;;;;6.78;1.80;;;;;;;;;;5003128;28;20033;-68
2022/01/26 21:45:06;;;;;;;3.38;1.73;;;;;;;;;;5003003;28;20053;-68
2022/01/26 21:47:32;;;;;;;3.50;2.30;;;;;;;;;;5003243;28;20038;-68